Time;durP1;ratioP1;P1;durP2;ratioP2;P2;SDS_P1;SDS_P2;PMS_P1;PMS_P2;Temp;Humidity;BMP_temperature;BMP_pressure;BME280_temperature;BME280_humidity;BME280_pressure;Samples;Min_cycle;Max_cycle;Signal;HPM_P1;HPM_P2
2022/06/06 00:01:15;;;;;;;54.00;30.70;;;15.70;99.90;;;;;;4947774;28;20037;-38
2022/06/06 00:03:42;;;;;;;49.83;30.02;;;15.70;99.90;;;;;;4928013;29;20688;-40
2022/06/06 00:06:14;;;;;;;57.20;33.17;;;15.60;99.90;;;;;;4947361;29;20027;-37
2022/06/06 00:08:40;;;;;;;50.88;29.25;;;15.60;99.90;;;;;;4947578;28;20038;-38
2022/06/06 00:11:08;;;;;;;49.60;30.48;;;15.50;99.90;;;;;;4946445;28;20019;-37
2022/06/06 00:13:34;;;;;;;46.35;30.45;;;15.60;99.90;;;;;;4946946;28;20031;-39
2022/06/06 00:16:00;;;;;;;46.63;29.05;;;15.50;99.90;;;;;;4947638;29;20133;-39
2022/06/06 00:18:26;;;;;;;46.97;28.52;;;15.50;99.90;;;;;;4946137;28;20036;-39
2022/06/06 00:20:52;;;;;;;47.65;29.77;;;15.50;99.90;;;;;;4947607;29;20043;-38
2022/06/06 00:23:17;;;;;;;44.70;27.50;;;15.50;99.90;;;;;;4947615;28;20035;-37
2022/06/06 00:25:43;;;;;;;43.97;27.95;;;15.50;99.90;;;;;;4946353;29;20671;-38
2022/06/06 00:28:08;;;;;;;41.65;26.00;;;15.50;99.90;;;;;;4947576;29;20504;-39
2022/06/06 00:30:34;;;;;;;44.63;27.60;;;15.50;99.90;;;;;;4946809;29;20038;-39
2022/06/06 00:35:43;;;;;;;40.92;25.63;;;15.50;99.90;;;;;;4947228;29;20102;-39
2022/06/06 00:38:09;;;;;;;40.00;26.65;;;15.50;99.90;;;;;;4948731;28;20031;-38
2022/06/06 00:40:35;;;;;;;36.03;24.02;;;15.50;99.90;;;;;;4950320;29;20503;-40
2022/06/06 00:43:03;;;;;;;37.83;23.77;;;15.50;99.90;;;;;;4950666;29;20079;-37
2022/06/06 00:45:36;;;;;;;33.30;23.17;;;15.40;99.90;;;;;;4950131;28;20066;-38
2022/06/06 00:48:17;;;;;;;33.13;21.48;;;15.40;99.90;;;;;;4950917;28;20399;-37
2022/06/06 00:50:57;;;;;;;31.42;21.17;;;15.40;99.90;;;;;;4950985;28;20406;-38
2022/06/06 00:53:32;;;;;;;27.88;19.38;;;15.40;99.90;;;;;;4950384;28;20170;-39
2022/06/06 00:56:06;;;;;;;29.05;18.90;;;15.40;99.90;;;;;;4950969;29;20441;-37
2022/06/06 00:58:34;;;;;;;24.08;16.48;;;15.40;99.90;;;;;;4950230;28;20031;-38
2022/06/06 01:00:59;;;;;;;28.20;16.98;;;15.50;99.90;;;;;;4950606;28;20071;-38
2022/06/06 01:03:26;;;;;;;29.20;16.80;;;15.50;99.90;;;;;;4950226;29;20054;-37
2022/06/06 01:05:54;;;;;;;27.55;16.92;;;15.50;99.90;;;;;;4950284;28;20054;-43
2022/06/06 01:08:20;;;;;;;30.23;18.13;;;15.50;99.90;;;;;;4950577;28;20023;-38
2022/06/06 01:10:47;;;;;;;27.42;17.52;;;15.50;99.90;;;;;;4950412;28;20023;-38
2022/06/06 01:13:15;;;;;;;27.25;17.52;;;15.50;99.90;;;;;;4949172;28;20090;-38
2022/06/06 01:15:47;;;;;;;24.90;16.20;;;15.50;99.90;;;;;;4950321;28;20402;-38
2022/06/06 01:18:26;;;;;;;32.30;18.88;;;15.50;99.90;;;;;;4949640;29;20102;-38
2022/06/06 01:20:53;;;;;;;26.05;17.60;;;15.50;99.90;;;;;;4949652;28;20126;-38
2022/06/06 01:23:47;;;;;;;28.15;17.63;;;15.50;99.90;;;;;;4950051;28;20133;-37
2022/06/06 01:26:49;;;;;;;24.10;15.93;;;15.50;99.90;;;;;;4950423;28;20063;-38
2022/06/06 01:29:28;;;;;;;24.23;16.63;;;15.60;99.90;;;;;;4948921;28;20038;-37
2022/06/06 01:32:02;;;;;;;22.88;15.18;;;15.60;99.90;;;;;;4949769;28;20376;-39
2022/06/06 01:34:32;;;;;;;25.05;16.55;;;15.60;99.90;;;;;;4949021;29;20035;-38
2022/06/06 01:36:59;;;;;;;25.45;16.52;;;15.60;99.90;;;;;;4950524;28;20060;-38
2022/06/06 01:39:27;;;;;;;25.33;15.88;;;15.60;99.90;;;;;;4949004;28;20484;-38
2022/06/06 01:41:52;;;;;;;24.42;16.58;;;15.60;99.90;;;;;;4949238;28;20372;-38
2022/06/06 01:44:50;;;;;;;24.70;16.25;;;15.60;99.90;;;;;;4949153;29;20034;-37
2022/06/06 01:47:36;;;;;;;24.90;16.17;;;15.60;99.90;;;;;;4871196;29;20041;-40
2022/06/06 01:50:04;;;;;;;24.05;16.38;;;15.60;99.90;;;;;;4946948;28;20047;-38
2022/06/06 01:52:29;;;;;;;22.33;14.80;;;15.50;99.90;;;;;;4949136;28;20055;-38
2022/06/06 01:54:57;;;;;;;23.88;16.15;;;15.50;99.90;;;;;;4949339;29;20035;-38
2022/06/06 01:57:24;;;;;;;29.48;17.27;;;15.50;99.90;;;;;;4949129;28;20330;-37
2022/06/06 01:59:51;;;;;;;24.77;16.73;;;15.50;99.90;;;;;;4950201;28;20039;-37
2022/06/06 02:02:18;;;;;;;26.92;17.38;;;15.50;99.90;;;;;;4948686;28;20028;-38
2022/06/06 02:04:43;;;;;;;26.48;17.05;;;15.50;99.90;;;;;;4948971;28;20885;-38
2022/06/06 02:07:09;;;;;;;25.33;16.20;;;15.40;99.90;;;;;;4949437;29;20031;-37
2022/06/06 02:09:36;;;;;;;30.02;16.80;;;15.40;99.90;;;;;;4948375;28;20027;-38
2022/06/06 02:12:02;;;;;;;27.63;16.40;;;15.40;99.90;;;;;;4949582;28;20054;-38
2022/06/06 02:14:28;;;;;;;26.63;16.40;;;15.40;99.90;;;;;;4948397;28;20074;-37
2022/06/06 02:16:54;;;;;;;24.25;16.48;;;15.50;99.90;;;;;;4948894;28;20142;-38
2022/06/06 02:19:20;;;;;;;23.95;15.57;;;15.50;99.90;;;;;;4948403;28;20477;-38
2022/06/06 02:21:46;;;;;;;23.08;15.35;;;15.40;99.90;;;;;;4948806;28;20457;-37
2022/06/06 02:24:11;;;;;;;21.98;14.02;;;15.40;99.90;;;;;;4948992;29;20031;-37
2022/06/06 02:26:37;;;;;;;17.83;12.90;;;15.40;99.90;;;;;;4949093;28;20031;-38
2022/06/06 02:29:05;;;;;;;19.80;14.23;;;15.50;99.90;;;;;;4949430;28;20509;-38
2022/06/06 02:31:37;;;;;;;22.38;14.85;;;15.50;99.90;;;;;;4947673;28;20360;-37
2022/06/06 02:34:07;;;;;;;24.92;15.18;;;15.50;99.90;;;;;;4949134;28;20498;-37
2022/06/06 02:36:32;;;;;;;23.65;15.50;;;15.50;99.90;;;;;;4948177;28;20797;-37
2022/06/06 02:38:58;;;;;;;26.17;15.55;;;15.60;99.90;;;;;;4948847;28;20023;-36
2022/06/06 02:41:25;;;;;;;23.33;15.18;;;15.60;99.90;;;;;;4948320;28;20399;-37
2022/06/06 02:43:52;;;;;;;21.60;15.05;;;15.60;99.90;;;;;;4948456;28;20039;-38
2022/06/06 02:46:18;;;;;;;24.92;17.80;;;15.60;99.90;;;;;;4947896;28;20034;-37
2022/06/06 02:48:43;;;;;;;23.88;16.10;;;15.70;99.90;;;;;;4948166;28;20101;-37
2022/06/06 02:51:09;;;;;;;22.80;14.73;;;15.70;99.90;;;;;;4948975;28;20035;-36
2022/06/06 02:53:36;;;;;;;23.13;15.55;;;15.70;99.90;;;;;;4947483;29;20498;-37
2022/06/06 02:56:02;;;;;;;25.00;15.82;;;15.70;99.90;;;;;;4948255;28;20046;-38
2022/06/06 02:58:28;;;;;;;21.58;14.50;;;15.80;99.90;;;;;;4947653;28;20028;-37
2022/06/06 03:01:00;;;;;;;26.10;17.50;;;15.80;99.90;;;;;;4948418;28;20027;-38
2022/06/06 03:03:27;;;;;;;24.02;16.58;;;15.80;99.90;;;;;;4938445;29;20027;-40
2022/06/06 03:06:08;;;;;;;25.58;16.25;;;15.80;99.90;;;;;;4947786;28;20028;-39
2022/06/06 03:09:02;;;;;;;24.83;16.10;;;15.80;99.90;;;;;;4938034;29;20114;-37
2022/06/06 03:11:40;;;;;;;25.60;17.73;;;15.80;99.90;;;;;;4947770;28;20460;-38
2022/06/06 03:14:24;;;;;;;32.25;19.38;;;15.90;99.90;;;;;;4947755;28;20064;-36
2022/06/06 03:20:47;;;;;;;33.58;20.70;;;15.90;99.90;;;;;;4947837;28;20090;-38
2022/06/06 03:23:20;;;;;;;30.33;19.17;;;15.80;99.90;;;;;;4948332;28;20035;-37
2022/06/06 03:25:56;;;;;;;28.08;19.17;;;15.80;99.90;;;;;;4947813;28;20058;-37
2022/06/06 03:28:58;;;;;;;25.55;15.90;;;15.80;99.90;;;;;;4946698;28;20038;-38
2022/06/06 03:31:58;;;;;;;30.17;18.38;;;15.80;99.90;;;;;;4924204;28;20399;-38
2022/06/06 03:34:36;;;;;;;26.55;17.35;;;15.80;99.90;;;;;;4936347;29;20134;-38
2022/06/06 03:37:19;;;;;;;28.67;18.50;;;15.80;99.90;;;;;;4947812;28;20035;-38
2022/06/06 03:40:05;;;;;;;24.17;16.48;;;15.80;99.90;;;;;;4938408;29;20038;-37
2022/06/06 03:42:48;;;;;;;27.55;18.70;;;15.80;99.90;;;;;;4946165;29;20032;-38
2022/06/06 03:45:25;;;;;;;26.15;17.77;;;15.80;99.90;;;;;;4947659;28;20031;-39
2022/06/06 03:48:14;;;;;;;21.42;14.63;;;15.80;99.90;;;;;;4947099;29;20071;-38
2022/06/06 03:50:54;;;;;;;26.52;16.60;;;15.90;99.90;;;;;;4939484;29;20035;-38
2022/06/06 03:53:43;;;;;;;23.75;15.85;;;15.90;99.90;;;;;;4947047;28;20061;-38
2022/06/06 03:56:45;;;;;;;25.30;15.98;;;16.00;99.90;;;;;;4947310;28;20042;-37
2022/06/06 03:59:13;;;;;;;26.15;16.80;;;16.00;99.90;;;;;;4906427;28;20442;-37
2022/06/06 04:01:41;;;;;;;24.23;16.77;;;16.00;99.90;;;;;;4947482;28;20027;-39
2022/06/06 04:04:08;;;;;;;27.52;17.63;;;15.90;99.90;;;;;;4947980;28;20064;-39
2022/06/06 04:06:34;;;;;;;30.30;19.45;;;16.00;99.90;;;;;;4947285;28;20023;-38
2022/06/06 04:09:01;;;;;;;26.85;17.00;;;16.00;99.90;;;;;;4946852;28;20031;-38
2022/06/06 04:11:39;;;;;;;29.00;17.55;;;16.00;99.90;;;;;;4947481;28;20111;-39
2022/06/06 04:14:30;;;;;;;26.88;17.17;;;16.00;99.90;;;;;;4951182;28;20015;-39
2022/06/06 04:17:20;;;;;;;27.77;17.58;;;16.00;99.90;;;;;;4950974;28;20050;-36
2022/06/06 04:19:54;;;;;;;26.63;17.35;;;16.00;99.90;;;;;;4950896;29;20073;-38
2022/06/06 04:22:23;;;;;;;27.75;17.67;;;16.00;99.90;;;;;;4932788;29;20110;-36
2022/06/06 04:25:14;;;;;;;33.17;21.70;;;16.00;99.90;;;;;;4945571;29;20160;-36
2022/06/06 04:27:53;;;;;;;34.90;21.98;;;16.00;99.90;;;;;;4932108;29;20087;-37
2022/06/06 04:30:34;;;;;;;37.28;24.20;;;16.00;99.90;;;;;;4947942;29;20043;-37
2022/06/06 04:33:22;;;;;;;35.67;23.55;;;15.90;99.90;;;;;;4951138;28;20125;-38
2022/06/06 04:35:58;;;;;;;45.55;28.65;;;15.90;99.90;;;;;;4950900;29;20019;-37
2022/06/06 04:38:23;;;;;;;42.38;27.10;;;15.90;99.90;;;;;;4950136;28;20479;-37
2022/06/06 04:41:17;;;;;;;44.30;27.73;;;15.90;99.90;;;;;;4950652;29;20133;-37
2022/06/06 04:43:59;;;;;;;49.17;29.83;;;15.90;99.90;;;;;;4950952;28;20070;-38
2022/06/06 04:46:40;;;;;;;47.78;29.65;;;15.90;99.90;;;;;;4947604;29;20035;-38
2022/06/06 04:49:07;;;;;;;42.08;26.90;;;15.80;99.90;;;;;;4951126;28;20422;-38
2022/06/06 04:51:34;;;;;;;39.35;27.38;;;15.80;99.90;;;;;;4946719;28;20031;-39
2022/06/06 04:54:01;;;;;;;38.13;25.95;;;15.80;99.90;;;;;;4950723;28;20058;-38
2022/06/06 04:56:27;;;;;;;39.30;26.42;;;15.80;99.90;;;;;;4950350;28;20537;-38
2022/06/06 04:58:56;;;;;;;38.40;24.85;;;15.80;99.90;;;;;;4950990;29;20118;-37
2022/06/06 05:01:24;;;;;;;33.90;22.88;;;15.80;99.90;;;;;;4950491;28;20040;-38
2022/06/06 05:03:50;;;;;;;34.97;24.05;;;15.80;99.90;;;;;;4951136;28;20027;-38
2022/06/06 05:06:36;;;;;;;31.77;21.95;;;15.70;99.90;;;;;;4950057;28;20310;-39
2022/06/06 05:09:11;;;;;;;32.60;21.98;;;15.80;99.90;;;;;;4931903;29;20027;-38
2022/06/06 05:11:43;;;;;;;36.25;24.90;;;15.70;99.90;;;;;;4946927;29;20059;-37
2022/06/06 05:14:09;;;;;;;32.95;22.90;;;15.80;99.90;;;;;;4950040;28;20023;-37
2022/06/06 05:16:37;;;;;;;27.45;20.55;;;15.70;99.90;;;;;;4950079;29;20053;-37
2022/06/06 05:19:03;;;;;;;32.95;22.90;;;15.70;99.90;;;;;;4950742;29;20722;-36
2022/06/06 05:21:40;;;;;;;32.50;23.90;;;15.80;99.90;;;;;;4949428;29;20027;-39
2022/06/06 05:24:21;;;;;;;30.48;23.42;;;15.70;99.90;;;;;;4949387;28;20062;-37
2022/06/06 05:27:08;;;;;;;30.17;21.05;;;15.80;99.90;;;;;;4949256;29;20090;-38
2022/06/06 05:29:50;;;;;;;28.13;21.55;;;15.70;99.90;;;;;;4930355;29;20031;-37
2022/06/06 05:32:21;;;;;;;30.65;21.10;;;15.70;99.90;;;;;;4946353;28;20046;-38
2022/06/06 05:34:55;;;;;;;27.35;20.23;;;15.80;99.90;;;;;;4930152;29;20059;-38
2022/06/06 05:37:50;;;;;;;30.75;22.17;;;15.80;99.90;;;;;;4945463;29;20444;-37
2022/06/06 05:40:36;;;;;;;27.90;20.55;;;15.80;99.90;;;;;;4918841;29;20480;-36
2022/06/06 05:43:27;;;;;;;24.00;18.63;;;15.80;99.90;;;;;;4950155;28;20035;-36
2022/06/06 05:46:11;;;;;;;24.02;18.60;;;15.80;99.90;;;;;;4949891;29;20155;-37
2022/06/06 05:49:04;;;;;;;23.83;17.38;;;15.80;99.90;;;;;;4946648;28;20032;-39
2022/06/06 05:51:41;;;;;;;;;;;15.80;99.90;;;;;;4950001;29;20086;-38
2022/06/06 05:54:20;;;;;;;19.25;15.32;;;15.90;99.90;;;;;;4949688;28;19922;-37
2022/06/06 05:57:04;;;;;;;21.10;15.30;;;15.90;99.90;;;;;;4935443;29;20593;-37
2022/06/06 05:59:53;;;;;;;16.85;13.50;;;15.80;99.90;;;;;;4940949;29;20058;-37
2022/06/06 06:02:19;;;;;;;18.13;14.45;;;15.80;99.90;;;;;;4948535;29;20031;-36
2022/06/06 06:04:50;;;;;;;17.15;14.00;;;15.80;99.90;;;;;;4948944;29;20430;-36
2022/06/06 06:07:35;;;;;;;17.48;13.90;;;15.80;99.90;;;;;;4948978;28;20027;-37
2022/06/06 06:10:20;;;;;;;17.50;12.27;;;15.80;99.90;;;;;;4949140;29;20027;-36
2022/06/06 06:13:24;;;;;;;14.88;10.93;;;15.80;99.90;;;;;;4949288;28;20441;-37
2022/06/06 06:15:52;;;;;;;13.85;11.27;;;15.80;99.90;;;;;;4905997;29;20043;-38
2022/06/06 06:18:40;;;;;;;14.25;11.02;;;15.80;99.90;;;;;;4900372;29;20111;-37
2022/06/06 06:21:12;;;;;;;13.50;10.30;;;15.80;99.90;;;;;;4932687;28;20062;-37
2022/06/06 06:23:40;;;;;;;;;;;15.90;99.90;;;;;;4948497;28;20027;-37
2022/06/06 06:26:06;;;;;;;11.45;9.32;;;15.90;99.90;;;;;;4949306;28;19942;-37
2022/06/06 06:28:36;;;;;;;9.57;8.15;;;16.00;99.90;;;;;;4948407;29;20031;-37
2022/06/06 06:31:22;;;;;;;12.95;9.45;;;16.00;99.90;;;;;;4949205;28;20032;-38
2022/06/06 06:34:20;;;;;;;13.23;10.07;;;16.10;99.90;;;;;;4948659;28;20027;-38
2022/06/06 06:37:01;;;;;;;13.52;10.05;;;16.10;99.90;;;;;;4947085;28;20050;-37
2022/06/06 06:39:49;;;;;;;10.82;8.35;;;16.10;99.90;;;;;;4948220;28;20159;-39
2022/06/06 06:42:20;;;;;;;11.50;8.32;;;16.20;99.90;;;;;;4929909;29;20394;-37
2022/06/06 06:44:53;;;;;;;8.05;7.00;;;16.20;99.90;;;;;;4945113;29;20135;-38
2022/06/06 06:47:30;;;;;;;11.68;8.13;;;16.20;99.90;;;;;;4948686;28;20485;-37
2022/06/06 06:50:15;;;;;;;11.85;8.40;;;16.20;99.90;;;;;;4948198;29;20561;-37
2022/06/06 06:52:40;;;;;;;8.82;7.90;;;16.20;99.90;;;;;;4947903;29;20169;-39
2022/06/06 06:55:19;;;;;;;9.90;8.55;;;16.20;99.90;;;;;;4948320;28;20026;-37
2022/06/06 06:58:16;;;;;;;9.32;8.15;;;16.20;99.90;;;;;;4948832;28;20035;-37
2022/06/06 07:01:04;;;;;;;8.25;6.65;;;16.30;99.90;;;;;;4947508;29;20398;-38
2022/06/06 07:09:56;;;;;;;7.57;6.78;;;16.60;99.90;;;;;;4947779;29;20099;-38
2022/06/06 07:13:13;;;;;;;8.50;6.82;;;16.60;99.90;;;;;;4947119;28;20081;-38
2022/06/06 07:15:51;;;;;;;6.68;5.93;;;16.60;99.90;;;;;;4935705;29;20051;-39
2022/06/06 07:18:19;;;;;;;7.45;6.50;;;16.60;99.90;;;;;;4928907;29;20110;-37
2022/06/06 07:20:47;;;;;;;7.28;5.90;;;16.60;99.90;;;;;;4942526;29;20130;-38
2022/06/06 07:23:15;;;;;;;8.25;6.30;;;16.70;99.90;;;;;;4948111;28;20270;-37
2022/06/06 07:25:44;;;;;;;6.72;5.85;;;16.80;99.90;;;;;;4947249;29;20054;-37
2022/06/06 07:28:14;;;;;;;9.95;7.55;;;16.90;99.90;;;;;;4947855;28;20032;-37
2022/06/06 07:31:01;;;;;;;11.30;8.38;;;16.90;99.90;;;;;;4947885;29;20475;-37
2022/06/06 07:33:52;;;;;;;9.95;7.22;;;16.90;99.90;;;;;;4946915;29;20503;-37
2022/06/06 07:36:38;;;;;;;7.32;6.72;;;17.00;99.90;;;;;;4947612;29;20054;-37
2022/06/06 07:39:39;;;;;;;9.43;7.80;;;17.10;99.90;;;;;;4948297;28;20027;-38
2022/06/06 07:42:42;;;;;;;7.05;6.35;;;17.10;99.90;;;;;;4947528;28;20035;-37
2022/06/06 07:45:29;;;;;;;6.22;5.35;;;17.10;99.90;;;;;;4948460;29;20386;-37
2022/06/06 07:48:26;;;;;;;6.13;5.50;;;17.20;99.90;;;;;;4937023;29;20118;-37
2022/06/06 07:51:03;;;;;;;5.75;4.47;;;17.20;99.90;;;;;;4947204;29;20152;-37
2022/06/06 07:53:54;;;;;;;8.38;3.95;;;17.20;99.90;;;;;;4947489;28;20067;-38
2022/06/06 07:56:39;;;;;;;6.95;3.92;;;17.20;99.90;;;;;;4947333;28;20027;-37
2022/06/06 07:59:35;;;;;;;4.18;3.50;;;17.20;99.90;;;;;;4947949;29;20150;-37
2022/06/06 08:02:37;;;;;;;4.90;3.30;;;17.30;99.90;;;;;;4946981;28;20042;-37
2022/06/06 08:05:30;;;;;;;4.80;3.20;;;17.40;99.90;;;;;;4938046;29;20138;-38
2022/06/06 08:08:25;;;;;;;5.20;3.25;;;17.50;99.90;;;;;;4945954;29;20050;-38
2022/06/06 08:10:50;;;;;;;4.18;2.58;;;17.50;99.90;;;;;;4947875;28;20054;-37
2022/06/06 08:13:32;;;;;;;3.58;2.60;;;17.60;99.90;;;;;;4946919;28;20107;-38
2022/06/06 08:16:22;;;;;;;4.70;2.47;;;17.60;99.90;;;;;;4946599;28;20023;-37
2022/06/06 08:19:09;;;;;;;3.65;2.28;;;17.60;99.90;;;;;;4947233;29;20547;-35
2022/06/06 08:21:43;;;;;;;3.75;2.15;;;17.60;99.90;;;;;;4947414;28;20031;-37
2022/06/06 08:24:16;;;;;;;2.72;2.22;;;17.50;99.90;;;;;;4937131;29;20599;-38
2022/06/06 08:26:46;;;;;;;3.40;2.03;;;17.40;99.90;;;;;;4947106;28;20037;-39
2022/06/06 08:29:12;;;;;;;2.05;1.85;;;17.30;99.90;;;;;;4947270;28;20123;-37
2022/06/06 08:31:37;;;;;;;2.70;2.15;;;17.10;99.90;;;;;;4947003;28;20117;-38
2022/06/06 08:34:03;;;;;;;3.10;2.17;;;17.00;99.90;;;;;;4947770;28;20479;-38
2022/06/06 08:36:32;;;;;;;3.78;2.10;;;16.90;99.90;;;;;;4946795;29;20793;-38
2022/06/06 08:39:22;;;;;;;2.53;1.83;;;16.90;99.90;;;;;;4946623;29;20110;-40
2022/06/06 08:41:53;;;;;;;2.90;1.85;;;16.80;99.90;;;;;;4942634;29;20882;-39
2022/06/06 08:44:36;;;;;;;3.47;2.10;;;16.80;99.90;;;;;;4943292;29;20097;-38
2022/06/06 08:47:25;;;;;;;3.50;2.60;;;16.80;99.90;;;;;;4947491;28;20046;-37
2022/06/06 08:53:33;;;;;;;1.92;1.40;;;17.20;99.90;;;;;;4947063;29;20514;-38
2022/06/06 08:56:24;;;;;;;2.58;2.15;;;17.30;99.90;;;;;;4947373;28;20055;-38
2022/06/06 08:59:15;;;;;;;2.58;1.42;;;17.40;99.90;;;;;;4947365;28;20134;-38
2022/06/06 09:02:24;;;;;;;4.90;1.88;;;17.40;99.90;;;;;;4950628;28;20422;-37
2022/06/06 09:05:11;;;;;;;1.65;1.55;;;17.50;99.90;;;;;;4948801;29;20051;-37
2022/06/06 09:08:31;;;;;;;1.85;1.38;;;17.60;99.90;;;;;;4949780;29;20031;-37
2022/06/06 09:11:29;;;;;;;3.40;1.60;;;17.70;99.90;;;;;;4942692;29;20059;-37
2022/06/06 09:14:14;;;;;;;2.65;1.20;;;17.80;99.90;;;;;;4950160;29;20438;-37
2022/06/06 09:16:53;;;;;;;2.25;1.45;;;17.90;99.90;;;;;;4950338;29;20039;-37
2022/06/06 09:19:48;;;;;;;1.88;1.20;;;18.00;99.90;;;;;;4949175;29;20486;-37
2022/06/06 09:22:57;;;;;;;1.58;1.13;;;17.90;99.90;;;;;;4949974;29;20077;-37
2022/06/06 09:25:46;;;;;;;3.22;1.30;;;17.80;99.90;;;;;;4927119;29;20047;-36
2022/06/06 09:28:40;;;;;;;2.15;1.80;;;17.80;99.90;;;;;;4950145;28;20465;-37
2022/06/06 09:31:20;;;;;;;1.58;1.27;;;17.80;99.90;;;;;;4950348;29;20542;-36
2022/06/06 09:34:18;;;;;;;1.58;1.27;;;17.80;99.90;;;;;;4949287;28;20406;-37
2022/06/06 09:36:48;;;;;;;1.80;1.25;;;17.80;99.90;;;;;;4941823;29;20023;-36
2022/06/06 09:39:33;;;;;;;3.35;1.20;;;18.00;99.90;;;;;;4949774;29;20477;-37
2022/06/06 09:42:07;;;;;;;2.15;1.40;;;18.10;99.90;;;;;;4950317;28;20039;-37
2022/06/06 09:45:18;;;;;;;1.20;1.10;;;18.30;99.90;;;;;;4949437;29;20546;-37
2022/06/06 09:48:00;;;;;;;2.05;1.50;;;18.30;99.90;;;;;;4948848;29;20035;-37
2022/06/06 09:51:03;;;;;;;2.67;1.50;;;18.30;99.90;;;;;;4949229;28;20118;-36
2022/06/06 10:00:08;;;;;;;2.28;1.45;;;18.30;99.90;;;;;;4941076;29;20258;-37
2022/06/06 10:03:02;;;;;;;2.65;1.45;;;18.40;99.90;;;;;;4939714;29;20038;-38
2022/06/06 10:05:30;;;;;;;1.52;1.40;;;18.50;99.90;;;;;;4947723;28;20043;-36
2022/06/06 10:08:17;;;;;;;2.15;1.95;;;18.70;99.90;;;;;;4949241;29;20035;-36
2022/06/06 10:10:48;;;;;;;1.70;1.60;;;18.80;99.90;;;;;;4948717;28;20391;-37
2022/06/06 10:13:35;;;;;;;2.58;1.60;;;18.90;99.90;;;;;;4949147;29;20074;-36
2022/06/06 10:16:13;;;;;;;1.50;1.33;;;18.90;99.90;;;;;;4948313;29;20055;-38
2022/06/06 10:19:00;;;;;;;1.50;1.40;;;18.90;99.90;;;;;;4949173;28;20081;-37
2022/06/06 10:21:59;;;;;;;2.45;1.48;;;18.90;99.90;;;;;;4948353;29;20155;-37
2022/06/06 10:24:52;;;;;;;3.63;1.80;;;18.90;99.90;;;;;;4929459;29;20027;-37
2022/06/06 10:27:45;;;;;;;2.33;1.63;;;19.00;99.90;;;;;;4946820;29;20035;-36
2022/06/06 10:30:37;;;;;;;3.17;2.00;;;18.80;99.90;;;;;;4945411;29;20410;-36
2022/06/06 10:33:17;;;;;;;2.90;1.70;;;18.70;99.90;;;;;;4946912;28;20023;-36
2022/06/06 10:36:14;;;;;;;1.77;1.67;;;18.50;99.90;;;;;;4947943;29;20062;-36
2022/06/06 10:38:52;;;;;;;1.92;1.67;;;18.30;99.90;;;;;;4939140;29;20027;-36
2022/06/06 10:41:36;;;;;;;1.63;1.52;;;18.20;99.90;;;;;;4948258;29;20347;-38
2022/06/06 10:44:26;;;;;;;2.08;1.50;;;18.10;99.90;;;;;;4948981;29;20062;-38
2022/06/06 10:47:14;;;;;;;2.28;1.80;;;18.10;99.90;;;;;;4949185;28;20057;-37
2022/06/06 10:49:58;;;;;;;4.05;2.05;;;18.20;99.90;;;;;;4948061;29;20414;-36
2022/06/06 10:52:54;;;;;;;4.18;1.75;;;18.30;99.90;;;;;;4947660;28;20047;-36
2022/06/06 10:55:35;;;;;;;1.48;1.38;;;18.50;99.90;;;;;;4948187;29;20027;-38
2022/06/06 10:58:24;;;;;;;2.42;1.70;;;18.70;99.90;;;;;;4947962;28;20332;-37
2022/06/06 11:01:11;;;;;;;3.20;2.15;;;18.90;99.90;;;;;;4929570;29;20095;-39
2022/06/06 11:04:14;;;;;;;2.33;1.80;;;19.20;99.90;;;;;;4946962;29;20023;-37
2022/06/06 11:07:18;;;;;;;2.95;1.65;;;19.20;99.90;;;;;;4948182;29;20023;-37
2022/06/06 11:10:23;;;;;;;1.52;1.42;;;19.10;99.90;;;;;;4939317;29;20774;-37
2022/06/06 11:13:25;;;;;;;2.78;1.95;;;19.00;99.90;;;;;;4947437;28;20034;-37
2022/06/06 11:16:22;;;;;;;2.40;2.20;;;19.00;99.90;;;;;;4948468;29;20067;-37
2022/06/06 11:19:15;;;;;;;2.33;2.13;;;19.00;99.90;;;;;;4945435;29;20483;-38
2022/06/06 11:21:52;;;;;;;2.85;2.20;;;19.00;99.90;;;;;;4928465;29;20028;-38
2022/06/06 11:24:56;;;;;;;1.98;1.77;;;19.00;99.90;;;;;;4946866;29;20035;-39
2022/06/06 11:27:39;;;;;;;2.20;1.60;;;19.10;99.90;;;;;;4939884;29;20051;-38
2022/06/06 11:30:23;;;;;;;3.78;1.80;;;19.20;99.90;;;;;;4946993;29;20023;-36
2022/06/06 11:33:25;;;;;;;1.73;1.55;;;19.30;99.90;;;;;;4947848;28;20457;-37
2022/06/06 11:36:02;;;;;;;1.30;1.20;;;19.50;99.20;;;;;;4941212;29;20477;-37
2022/06/06 11:38:41;;;;;;;1.42;1.33;;;19.70;99.50;;;;;;4947943;29;20027;-39
2022/06/06 11:41:31;;;;;;;2.50;1.42;;;19.80;99.40;;;;;;4947669;28;20122;-39
2022/06/06 11:44:07;;;;;;;1.92;1.20;;;20.00;99.00;;;;;;4948012;28;20023;-37
2022/06/06 11:47:15;;;;;;;2.28;1.52;;;20.20;98.70;;;;;;4946745;28;20027;-37
2022/06/06 11:50:11;;;;;;;3.05;1.60;;;20.20;98.10;;;;;;4947282;28;20407;-38
2022/06/06 11:53:20;;;;;;;1.60;1.50;;;20.20;98.10;;;;;;4928193;29;20089;-40
2022/06/06 11:55:58;;;;;;;2.30;1.40;;;20.20;98.20;;;;;;4945019;29;20359;-39
2022/06/06 11:59:12;;;;;;;1.92;1.30;;;20.10;98.30;;;;;;4947231;28;20114;-38
2022/06/06 12:01:52;;;;;;;2.15;1.55;;;20.10;98.60;;;;;;4938282;29;20044;-39
2022/06/06 12:04:49;;;;;;;1.42;1.33;;;20.00;99.50;;;;;;4947213;28;20034;-37
2022/06/06 12:07:52;;;;;;;2.20;1.30;;;19.80;99.90;;;;;;4946838;28;20114;-37
2022/06/06 12:10:21;;;;;;;;;;;19.60;99.90;;;;;;4947688;29;20109;-39
2022/06/06 12:12:59;;;;;;;2.25;1.60;;;19.40;99.90;;;;;;4947563;28;20005;-37
2022/06/06 12:16:09;;;;;;;2.78;1.10;;;19.20;99.90;;;;;;4946055;29;20030;-37
2022/06/06 12:18:54;;;;;;;2.13;1.48;;;19.00;99.90;;;;;;4926529;29;20043;-37
2022/06/06 12:21:40;;;;;;;2.03;1.40;;;18.80;99.90;;;;;;4946341;29;20031;-37
2022/06/06 12:24:21;;;;;;;1.40;1.20;;;18.90;99.90;;;;;;4948046;29;20166;-38
2022/06/06 12:27:24;;;;;;;1.80;1.50;;;19.10;99.90;;;;;;4946911;29;20603;-39
2022/06/06 12:29:52;;;;;;;;;;;19.40;99.90;;;;;;4946910;29;20020;-38
2022/06/06 12:32:27;;;;;;;2.45;1.42;;;19.50;99.90;;;;;;4947065;28;19930;-40
2022/06/06 12:35:01;;;;;;;2.05;1.63;;;19.40;99.90;;;;;;4950305;29;20457;-39
2022/06/06 12:37:49;;;;;;;2.50;1.98;;;19.10;99.90;;;;;;4950618;28;20053;-39
2022/06/06 12:40:52;;;;;;;4.90;2.15;;;18.90;99.90;;;;;;4951073;28;20170;-37
2022/06/06 12:43:30;;;;;;;4.63;2.05;;;18.50;99.90;;;;;;4944644;29;20062;-39
2022/06/06 12:46:17;;;;;;;2.00;1.50;;;18.30;99.90;;;;;;4951867;29;20042;-37
2022/06/06 12:49:27;;;;;;;1.88;1.30;;;18.20;99.90;;;;;;4951549;29;20493;-39
2022/06/06 12:52:16;;;;;;;2.38;1.50;;;18.00;99.90;;;;;;4941273;29;20051;-37
2022/06/06 12:57:46;;;;;;;3.58;1.40;;;17.70;99.90;;;;;;4948083;29;20086;-37
2022/06/06 13:00:14;;;;;;;2.90;1.30;;;17.70;99.90;;;;;;4950953;28;20047;-37
2022/06/06 13:03:02;;;;;;;1.35;1.15;;;17.70;99.90;;;;;;4950809;28;20023;-37
2022/06/06 13:05:30;;;;;;;2.40;1.33;;;17.80;99.90;;;;;;4949471;28;20027;-37
2022/06/06 13:08:25;;;;;;;1.15;1.10;;;17.90;99.90;;;;;;4950463;29;20023;-38
2022/06/06 13:11:08;;;;;;;2.47;1.70;;;18.00;99.90;;;;;;4950100;28;20035;-37
2022/06/06 13:13:44;;;;;;;1.40;1.30;;;18.10;99.90;;;;;;4950341;28;20119;-37
2022/06/06 13:16:28;;;;;;;1.90;1.50;;;18.10;99.90;;;;;;4950776;28;20048;-36
2022/06/06 13:19:34;;;;;;;1.65;1.33;;;18.10;99.90;;;;;;4939227;29;20054;-37
2022/06/06 13:22:43;;;;;;;2.53;1.40;;;18.00;99.90;;;;;;4951175;29;20486;-37
2022/06/06 13:25:48;;;;;;;1.60;1.48;;;18.10;99.90;;;;;;4928426;29;20044;-37
2022/06/06 13:28:21;;;;;;;1.63;1.27;;;18.20;99.90;;;;;;4928706;29;20056;-38
2022/06/06 13:30:46;;;;;;;;;;;18.30;99.90;;;;;;4946090;29;20043;-37
2022/06/06 13:33:37;;;;;;;1.50;1.40;;;18.50;99.90;;;;;;4949445;29;20406;-37
2022/06/06 13:36:30;;;;;;;2.00;1.52;;;18.70;99.90;;;;;;4931084;29;20035;-38
2022/06/06 13:39:01;;;;;;;2.55;1.65;;;18.80;99.90;;;;;;4949162;28;20114;-37
2022/06/06 13:41:47;;;;;;;1.30;1.10;;;18.80;99.90;;;;;;4949350;29;20046;-37
2022/06/06 13:44:37;;;;;;;1.75;1.23;;;18.90;99.90;;;;;;4948730;28;20027;-37
2022/06/06 13:47:37;;;;;;;1.40;1.27;;;18.80;99.90;;;;;;4949581;28;20019;-36
2022/06/06 13:50:23;;;;;;;2.63;1.27;;;18.70;99.90;;;;;;4931118;29;20047;-38
2022/06/06 13:53:14;;;;;;;1.25;1.15;;;18.70;99.90;;;;;;4948501;28;20577;-36
2022/06/06 13:55:40;;;;;;;3.33;1.13;;;18.60;99.90;;;;;;4945949;29;20067;-37
2022/06/06 13:58:37;;;;;;;2.30;1.20;;;18.60;99.90;;;;;;4949854;28;20037;-38
2022/06/06 14:01:40;;;;;;;1.45;1.10;;;18.70;99.90;;;;;;4948962;28;20047;-37
2022/06/06 14:04:54;;;;;;;1.40;1.30;;;18.70;99.90;;;;;;4937887;29;20050;-37
2022/06/06 14:07:19;;;;;;;;;;;18.80;99.90;;;;;;4925807;29;20047;-37
2022/06/06 14:09:47;;;;;;;2.58;1.80;;;18.80;99.90;;;;;;4947304;29;19958;-38
2022/06/06 14:12:34;;;;;;;1.70;1.30;;;18.70;99.90;;;;;;4949393;28;20070;-37